createdAt,value
2023-01-19T00:07:01.116Z,100
2023-01-19T00:22:44.169Z,100
2023-01-19T00:38:27.321Z,100
2023-01-19T00:54:10.612Z,100
2023-01-19T01:09:53.215Z,100
2023-01-19T01:25:36.133Z,100
2023-01-19T01:41:18.730Z,100
2023-01-19T01:57:01.949Z,100
2023-01-19T02:12:45.299Z,100
2023-01-19T02:28:27.952Z,100
2023-01-19T02:44:10.236Z,100
2023-01-19T02:59:53.809Z,100
2023-01-19T03:15:36.687Z,100
2023-01-19T03:31:20.003Z,100
2023-01-19T03:47:03.355Z,100
2023-01-19T04:02:45.858Z,100
2023-01-19T04:18:28.991Z,100
2023-01-19T04:34:11.705Z,100
2023-01-19T04:49:54.458Z,100
2023-01-19T05:05:37.611Z,100
2023-01-19T05:21:21.127Z,100
2023-01-19T05:37:04.445Z,100
2023-01-19T05:52:47.138Z,100
2023-01-19T06:08:30.159Z,100
2023-01-19T06:24:12.881Z,100
2023-01-19T06:39:55.993Z,100
2023-01-19T06:55:38.235Z,100
2023-01-19T07:11:21.831Z,100
2023-01-19T07:27:04.815Z,100
2023-01-19T07:42:47.321Z,100
2023-01-19T07:58:30.348Z,100
2023-01-19T08:14:13.188Z,100
2023-01-19T08:29:55.824Z,99.42
2023-01-19T08:45:38.978Z,97.57
2023-01-19T09:01:22.300Z,94.77
2023-01-19T09:17:05.463Z,90.86
2023-01-19T09:32:48.290Z,90.36
2023-01-19T09:48:30.998Z,85.43
2023-01-19T10:04:13.978Z,86.64
2023-01-19T10:19:57.071Z,84.54
2023-01-19T10:35:39.860Z,84.75
2023-01-19T10:51:22.277Z,81.83
2023-01-19T11:07:05.598Z,77.7
2023-01-19T11:22:47.968Z,79.2
2023-01-19T11:38:30.411Z,81.73
2023-01-19T11:54:12.814Z,84.15
2023-01-19T11:55:00.289Z,83.64
2023-01-19T12:10:43.219Z,87.48
2023-01-19T12:26:26.692Z,88.87
2023-01-19T12:42:09.315Z,89.8
2023-01-19T12:57:51.976Z,88.66
2023-01-19T13:13:34.991Z,82.37
2023-01-19T13:29:17.388Z,81.33
2023-01-19T13:45:00.376Z,84.29
2023-01-19T14:00:43.071Z,86.84
2023-01-19T14:16:26.121Z,88.47
2023-01-19T14:32:08.447Z,89.78
2023-01-19T14:47:51.705Z,91.05
2023-01-19T15:03:34.163Z,92.39
2023-01-19T15:19:16.963Z,93.37
2023-01-19T15:34:59.440Z,94.97
2023-01-19T15:50:42.502Z,96.1
2023-01-19T16:06:25.734Z,97.25
2023-01-19T16:22:08.388Z,98.16
2023-01-19T16:37:51.290Z,97.56
2023-01-19T16:53:34.218Z,98.62
2023-01-19T17:09:17.095Z,98.89
2023-01-19T17:24:59.568Z,98.64
2023-01-19T17:40:42.084Z,98.04
2023-01-19T17:56:24.706Z,98.49
2023-01-19T18:12:07.864Z,98.31
2023-01-19T18:27:50.858Z,98.83
2023-01-19T18:43:33.846Z,99.1
2023-01-19T18:59:16.396Z,98.96
2023-01-19T19:14:59.007Z,98.8
2023-01-19T19:30:42.001Z,98.67
2023-01-19T19:46:24.671Z,98.56
2023-01-19T20:02:07.853Z,98.85
2023-01-19T20:17:50.984Z,98.5
2023-01-19T20:33:34.278Z,98.08
2023-01-19T20:49:17.483Z,97.92
2023-01-19T21:05:00.516Z,97.91
2023-01-19T21:20:43.420Z,98.21
2023-01-19T21:36:26.008Z,98.28
2023-01-19T21:52:08.517Z,98.18
2023-01-19T22:07:51.873Z,98.16
2023-01-19T22:23:34.882Z,98.73
2023-01-19T22:39:18.138Z,99.65
2023-01-19T22:55:00.509Z,100
2023-01-19T23:10:43.087Z,100
2023-01-19T23:26:25.803Z,100
2023-01-19T23:42:08.996Z,100
2023-01-19T23:57:51.527Z,100
